sensor_id;sensor_type;location;lat;lon;timestamp;pressure;altitude;pressure_sealevel;temperature;humidity
43436;BME280;36399;51.444;-2.018;2023-07-29T00:00:53;100405.41;;;14.62;100.00
43436;BME280;36399;51.444;-2.018;2023-07-29T00:03:20;100409.81;;;14.61;100.00
43436;BME280;36399;51.444;-2.018;2023-07-29T00:05:47;100408.06;;;14.60;100.00
43436;BME280;36399;51.444;-2.018;2023-07-29T00:08:13;100400.13;;;14.56;100.00
43436;BME280;36399;51.444;-2.018;2023-07-29T00:10:39;100412.44;;;14.63;100.00
43436;BME280;36399;51.444;-2.018;2023-07-29T00:13:07;100403.66;;;14.58;100.00
43436;BME280;36399;51.444;-2.018;2023-07-29T00:15:33;100406.28;;;14.55;100.00
43436;BME280;36399;51.444;-2.018;2023-07-29T00:17:59;100408.03;;;14.56;100.00
43436;BME280;36399;51.444;-2.018;2023-07-29T00:20:25;100407.19;;;14.53;100.00
43436;BME280;36399;51.444;-2.018;2023-07-29T00:22:51;100412.47;;;14.50;100.00
43436;BME280;36399;51.444;-2.018;2023-07-29T00:25:20;100399.25;;;14.52;100.00
43436;BME280;36399;51.444;-2.018;2023-07-29T00:27:47;100396.59;;;14.53;100.00
43436;BME280;36399;51.444;-2.018;2023-07-29T00:30:13;100384.28;;;14.52;100.00
43436;BME280;36399;51.444;-2.018;2023-07-29T00:32:39;100374.59;;;14.53;100.00
43436;BME280;36399;51.444;-2.018;2023-07-29T00:35:05;100370.22;;;14.50;100.00
43436;BME280;36399;51.444;-2.018;2023-07-29T00:37:31;100379.03;;;14.49;100.00
43436;BME280;36399;51.444;-2.018;2023-07-29T00:39:57;100373.72;;;14.49;100.00
43436;BME280;36399;51.444;-2.018;2023-07-29T00:42:24;100364.97;;;14.44;100.00
43436;BME280;36399;51.444;-2.018;2023-07-29T00:44:50;100358.81;;;14.42;100.00
43436;BME280;36399;51.444;-2.018;2023-07-29T00:47:16;100352.63;;;14.43;100.00
43436;BME280;36399;51.444;-2.018;2023-07-29T00:49:43;100349.09;;;14.47;100.00
43436;BME280;36399;51.444;-2.018;2023-07-29T00:52:09;100348.25;;;14.42;100.00
43436;BME280;36399;51.444;-2.018;2023-07-29T00:54:39;100348.22;;;14.39;100.00
43436;BME280;36399;51.444;-2.018;2023-07-29T00:57:06;100347.34;;;14.40;100.00
43436;BME280;36399;51.444;-2.018;2023-07-29T00:59:35;100346.47;;;14.35;100.00
43436;BME280;36399;51.444;-2.018;2023-07-29T01:02:02;100344.72;;;14.34;100.00
43436;BME280;36399;51.444;-2.018;2023-07-29T01:04:28;100342.06;;;14.37;100.00
43436;BME280;36399;51.444;-2.018;2023-07-29T01:07:14;100340.31;;;14.44;100.00
43436;BME280;36399;51.444;-2.018;2023-07-29T01:15:11;100336.78;;;14.37;100.00
43436;BME280;36399;51.444;-2.018;2023-07-29T01:17:49;100335.03;;;14.36;100.00
43436;BME280;36399;51.444;-2.018;2023-07-29T01:20:17;100336.81;;;14.31;100.00
43436;BME280;36399;51.444;-2.018;2023-07-29T01:22:46;100331.53;;;14.31;100.00
43436;BME280;36399;51.444;-2.018;2023-07-29T01:25:13;100336.81;;;14.31;100.00
43436;BME280;36399;51.444;-2.018;2023-07-29T01:27:41;100335.03;;;14.36;100.00
43436;BME280;36399;51.444;-2.018;2023-07-29T01:30:07;100325.38;;;14.29;100.00
43436;BME280;36399;51.444;-2.018;2023-07-29T01:32:53;100332.44;;;14.30;100.00
43436;BME280;36399;51.444;-2.018;2023-07-29T01:35:31;100329.78;;;14.27;100.00
43436;BME280;36399;51.444;-2.018;2023-07-29T01:38:06;100331.59;;;14.22;100.00
43436;BME280;36399;51.444;-2.018;2023-07-29T01:40:33;100327.19;;;14.19;100.00
43436;BME280;36399;51.444;-2.018;2023-07-29T01:42:59;100331.59;;;14.19;100.00
43436;BME280;36399;51.444;-2.018;2023-07-29T01:45:25;100318.38;;;14.20;100.00
43436;BME280;36399;51.444;-2.018;2023-07-29T01:47:52;100320.13;;;14.25;100.00
43436;BME280;36399;51.444;-2.018;2023-07-29T01:50:18;100324.53;;;14.21;100.00
43436;BME280;36399;51.444;-2.018;2023-07-29T01:52:44;100315.75;;;14.19;100.00
43436;BME280;36399;51.444;-2.018;2023-07-29T01:55:10;100315.78;;;14.16;100.00
43436;BME280;36399;51.444;-2.018;2023-07-29T01:57:36;100313.13;;;14.17;100.00
43436;BME280;36399;51.444;-2.018;2023-07-29T02:00:02;100317.53;;;14.17;100.00
43436;BME280;36399;51.444;-2.018;2023-07-29T02:02:29;100316.63;;;14.19;100.00
43436;BME280;36399;51.444;-2.018;2023-07-29T02:04:55;100307.84;;;14.14;100.00
43436;BME280;36399;51.444;-2.018;2023-07-29T02:07:21;100307.88;;;14.10;100.00
43436;BME280;36399;51.444;-2.018;2023-07-29T02:09:47;100308.75;;;14.09;100.00
43436;BME280;36399;51.444;-2.018;2023-07-29T02:12:13;100312.25;;;14.14;100.00
43436;BME280;36399;51.444;-2.018;2023-07-29T02:14:39;100312.22;;;14.20;100.00
43436;BME280;36399;51.444;-2.018;2023-07-29T02:17:05;100301.72;;;14.11;100.00
43436;BME280;36399;51.444;-2.018;2023-07-29T02:19:31;100298.19;;;14.09;100.00
43436;BME280;36399;51.444;-2.018;2023-07-29T02:21:57;100297.31;;;14.04;100.00
43436;BME280;36399;51.444;-2.018;2023-07-29T02:24:22;100303.50;;;14.00;100.00
43436;BME280;36399;51.444;-2.018;2023-07-29T02:26:48;100292.97;;;13.94;100.00
43436;BME280;36399;51.444;-2.018;2023-07-29T02:29:14;100293.84;;;13.89;100.00
43436;BME280;36399;51.444;-2.018;2023-07-29T02:31:40;100281.56;;;13.81;100.00
43436;BME280;36399;51.444;-2.018;2023-07-29T02:34:06;100289.50;;;13.76;100.00
43436;BME280;36399;51.444;-2.018;2023-07-29T02:36:32;100293.03;;;13.72;100.00
43436;BME280;36399;51.444;-2.018;2023-07-29T02:38:58;100285.13;;;13.72;100.00
43436;BME280;36399;51.444;-2.018;2023-07-29T02:41:24;100287.75;;;13.72;100.00
43436;BME280;36399;51.444;-2.018;2023-07-29T02:43:50;100289.53;;;13.70;100.00
43436;BME280;36399;51.444;-2.018;2023-07-29T02:46:17;100284.25;;;13.70;100.00
43436;BME280;36399;51.444;-2.018;2023-07-29T02:48:44;100284.25;;;13.70;100.00
43436;BME280;36399;51.444;-2.018;2023-07-29T02:51:10;100277.19;;;13.75;100.00
43436;BME280;36399;51.444;-2.018;2023-07-29T02:53:35;100277.19;;;13.78;100.00
43436;BME280;36399;51.444;-2.018;2023-07-29T02:56:04;100274.53;;;13.81;100.00
43436;BME280;36399;51.444;-2.018;2023-07-29T02:58:32;100272.78;;;13.82;100.00
43436;BME280;36399;51.444;-2.018;2023-07-29T03:01:02;100272.78;;;13.80;100.00
43436;BME280;36399;51.444;-2.018;2023-07-29T03:03:28;100269.25;;;13.81;100.00
43436;BME280;36399;51.444;-2.018;2023-07-29T03:06:06;100276.28;;;13.81;100.00
43436;BME280;36399;51.444;-2.018;2023-07-29T03:08:32;100266.63;;;13.81;100.00
43436;BME280;36399;51.444;-2.018;2023-07-29T03:11:05;100262.19;;;13.89;100.00
43436;BME280;36399;51.444;-2.018;2023-07-29T03:13:31;100259.53;;;13.89;100.00
43436;BME280;36399;51.444;-2.018;2023-07-29T03:18:35;100250.75;;;13.87;100.00
43436;BME280;36399;51.444;-2.018;2023-07-29T03:21:02;100241.94;;;13.92;100.00
43436;BME280;36399;51.444;-2.018;2023-07-29T03:23:29;100235.84;;;13.76;100.00
43436;BME280;36399;51.444;-2.018;2023-07-29T03:25:56;100235.03;;;13.66;100.00
43436;BME280;36399;51.444;-2.018;2023-07-29T03:28:28;100240.31;;;13.60;100.00
43436;BME280;36399;51.444;-2.018;2023-07-29T03:30:55;100235.94;;;13.57;100.00
43436;BME280;36399;51.444;-2.018;2023-07-29T03:33:22;100238.59;;;13.53;100.00
43436;BME280;36399;51.444;-2.018;2023-07-29T03:35:48;100237.66;;;13.52;100.00
43436;BME280;36399;51.444;-2.018;2023-07-29T03:38:14;100234.19;;;13.43;100.00
43436;BME280;36399;51.444;-2.018;2023-07-29T03:40:41;100239.47;;;13.35;100.00
43436;BME280;36399;51.444;-2.018;2023-07-29T03:43:07;100237.72;;;13.37;100.00
43436;BME280;36399;51.444;-2.018;2023-07-29T03:45:34;100240.38;;;13.30;100.00
43436;BME280;36399;51.444;-2.018;2023-07-29T03:48:01;100233.34;;;13.25;100.00
43436;BME280;36399;51.444;-2.018;2023-07-29T03:50:27;100247.41;;;13.24;100.00
43436;BME280;36399;51.444;-2.018;2023-07-29T03:52:54;100248.28;;;13.23;100.00
43436;BME280;36399;51.444;-2.018;2023-07-29T03:55:20;100252.69;;;13.27;100.00
43436;BME280;36399;51.444;-2.018;2023-07-29T03:57:46;100249.16;;;13.33;100.00
43436;BME280;36399;51.444;-2.018;2023-07-29T04:00:12;100249.16;;;13.35;100.00
43436;BME280;36399;51.444;-2.018;2023-07-29T04:02:38;100243.00;;;13.30;100.00
43436;BME280;36399;51.444;-2.018;2023-07-29T04:05:05;100252.69;;;13.27;100.00
43436;BME280;36399;51.444;-2.018;2023-07-29T04:07:34;100249.16;;;13.29;100.00
43436;BME280;36399;51.444;-2.018;2023-07-29T04:10:01;100250.94;;;13.23;100.00
43436;BME280;36399;51.444;-2.018;2023-07-29T04:12:27;100242.16;;;13.18;100.00
43436;BME280;36399;51.444;-2.018;2023-07-29T04:14:53;100251.81;;;13.18;100.00
43436;BME280;36399;51.444;-2.018;2023-07-29T04:17:19;100242.13;;;13.15;100.00
43436;BME280;36399;51.444;-2.018;2023-07-29T04:19:45;100250.91;;;13.14;100.00
43436;BME280;36399;51.444;-2.018;2023-07-29T04:22:11;100252.69;;;13.18;100.00
43436;BME280;36399;51.444;-2.018;2023-07-29T04:24:37;100249.16;;;13.13;100.00
43436;BME280;36399;51.444;-2.018;2023-07-29T04:27:04;100262.34;;;13.13;100.00
43436;BME280;36399;51.444;-2.018;2023-07-29T04:29:30;100262.34;;;13.03;100.00
43436;BME280;36399;51.444;-2.018;2023-07-29T04:31:55;100270.25;;;13.07;100.00
43436;BME280;36399;51.444;-2.018;2023-07-29T04:34:21;100270.22;;;13.00;100.00
43436;BME280;36399;51.444;-2.018;2023-07-29T04:36:48;100279.91;;;13.08;100.00
43436;BME280;36399;51.444;-2.018;2023-07-29T04:39:14;100284.31;;;13.09;100.00
43436;BME280;36399;51.444;-2.018;2023-07-29T04:41:40;100287.81;;;13.11;100.00
43436;BME280;36399;51.444;-2.018;2023-07-29T04:44:06;100286.06;;;13.07;100.00
43436;BME280;36399;51.444;-2.018;2023-07-29T04:46:33;100287.81;;;13.11;100.00
43436;BME280;36399;51.444;-2.018;2023-07-29T04:48:59;100285.19;;;13.20;100.00
43436;BME280;36399;51.444;-2.018;2023-07-29T04:51:25;100287.84;;;13.20;100.00
43436;BME280;36399;51.444;-2.018;2023-07-29T04:53:51;100287.81;;;13.28;100.00
43436;BME280;36399;51.444;-2.018;2023-07-29T04:56:17;100286.06;;;13.25;100.00
43436;BME280;36399;51.444;-2.018;2023-07-29T04:58:42;100290.47;;;13.26;100.00
43436;BME280;36399;51.444;-2.018;2023-07-29T05:01:08;100284.31;;;13.32;100.00
43436;BME280;36399;51.444;-2.018;2023-07-29T05:03:35;100291.34;;;13.29;100.00
43436;BME280;36399;51.444;-2.018;2023-07-29T05:06:00;100296.63;;;13.29;100.00
43436;BME280;36399;51.444;-2.018;2023-07-29T05:08:27;100294.84;;;13.31;100.00
43436;BME280;36399;51.444;-2.018;2023-07-29T05:10:53;100291.31;;;13.36;100.00
43436;BME280;36399;51.444;-2.018;2023-07-29T05:13:23;100308.03;;;13.37;100.00
43436;BME280;36399;51.444;-2.018;2023-07-29T05:15:49;100314.16;;;13.45;100.00
43436;BME280;36399;51.444;-2.018;2023-07-29T05:18:16;100313.31;;;13.53;100.00
43436;BME280;36399;51.444;-2.018;2023-07-29T05:20:42;100322.94;;;13.65;100.00
43436;BME280;36399;51.444;-2.018;2023-07-29T05:23:09;100324.66;;;13.81;100.00
43436;BME280;36399;51.444;-2.018;2023-07-29T05:25:35;100329.06;;;13.84;100.00
43436;BME280;36399;51.444;-2.018;2023-07-29T05:28:01;100334.28;;;13.96;100.00
43436;BME280;36399;51.444;-2.018;2023-07-29T05:30:28;100331.66;;;13.98;100.00
43436;BME280;36399;51.444;-2.018;2023-07-29T05:32:57;100331.66;;;14.07;100.00
43436;BME280;36399;51.444;-2.018;2023-07-29T05:35:23;100327.25;;;14.06;100.00
43436;BME280;36399;51.444;-2.018;2023-07-29T05:37:51;100319.31;;;14.07;100.00
43436;BME280;36399;51.444;-2.018;2023-07-29T05:40:17;100312.28;;;14.02;100.00
43436;BME280;36399;51.444;-2.018;2023-07-29T05:42:43;100310.53;;;14.01;100.00
43436;BME280;36399;51.444;-2.018;2023-07-29T05:45:11;100307.03;;;13.93;100.00
43436;BME280;36399;51.444;-2.018;2023-07-29T05:47:37;100299.13;;;13.88;100.00
43436;BME280;36399;51.444;-2.018;2023-07-29T05:50:04;100309.69;;;13.89;100.00
43436;BME280;36399;51.444;-2.018;2023-07-29T05:52:34;100297.38;;;13.92;100.00
43436;BME280;36399;51.444;-2.018;2023-07-29T05:55:00;100298.22;;;13.94;100.00
43436;BME280;36399;51.444;-2.018;2023-07-29T05:57:28;100297.31;;;14.02;100.00
43436;BME280;36399;51.444;-2.018;2023-07-29T05:59:54;100305.22;;;14.13;100.00
43436;BME280;36399;51.444;-2.018;2023-07-29T06:02:20;100308.72;;;14.18;100.00
43436;BME280;36399;51.444;-2.018;2023-07-29T06:04:46;100308.69;;;14.26;100.00
43436;BME280;36399;51.444;-2.018;2023-07-29T06:07:12;100306.84;;;14.38;100.00
43436;BME280;36399;51.444;-2.018;2023-07-29T06:09:39;100307.72;;;14.45;100.00
43436;BME280;36399;51.444;-2.018;2023-07-29T06:12:06;100311.19;;;14.62;100.00
43436;BME280;36399;51.444;-2.018;2023-07-29T06:14:32;100301.38;;;14.78;100.00
43436;BME280;36399;51.444;-2.018;2023-07-29T06:16:57;100292.59;;;14.76;100.00
43436;BME280;36399;51.444;-2.018;2023-07-29T06:19:23;100281.13;;;14.78;100.00
43436;BME280;36399;51.444;-2.018;2023-07-29T06:21:49;100272.34;;;14.75;100.00
43436;BME280;36399;51.444;-2.018;2023-07-29T06:24:15;100273.25;;;14.71;100.00
43436;BME280;36399;51.444;-2.018;2023-07-29T06:26:41;100271.47;;;14.73;100.00
43436;BME280;36399;51.444;-2.018;2023-07-29T06:29:07;100257.28;;;14.83;100.00
43436;BME280;36399;51.444;-2.018;2023-07-29T06:31:33;100255.56;;;14.79;100.00
43436;BME280;36399;51.444;-2.018;2023-07-29T06:33:59;100254.63;;;14.86;100.00
43436;BME280;36399;51.444;-2.018;2023-07-29T06:36:25;100248.38;;;14.95;100.00
43436;BME280;36399;51.444;-2.018;2023-07-29T06:38:51;100233.31;;;15.06;100.00
43436;BME280;36399;51.444;-2.018;2023-07-29T06:41:17;100232.47;;;15.01;100.00
43436;BME280;36399;51.444;-2.018;2023-07-29T06:43:43;100226.22;;;15.11;100.00
43436;BME280;36399;51.444;-2.018;2023-07-29T06:46:09;100218.25;;;15.15;100.00
43436;BME280;36399;51.444;-2.018;2023-07-29T06:48:34;100213.81;;;15.19;100.00
43436;BME280;36399;51.444;-2.018;2023-07-29T06:51:00;100196.09;;;15.26;100.00
43436;BME280;36399;51.444;-2.018;2023-07-29T06:53:28;100190.72;;;15.35;100.00
43436;BME280;36399;51.444;-2.018;2023-07-29T06:55:54;100178.22;;;15.47;100.00
43436;BME280;36399;51.444;-2.018;2023-07-29T06:58:20;100175.56;;;15.49;100.00
43436;BME280;36399;51.444;-2.018;2023-07-29T07:00:46;100165.72;;;15.65;100.00
43436;BME280;36399;51.444;-2.018;2023-07-29T07:03:12;100147.16;;;15.69;100.00
43436;BME280;36399;51.444;-2.018;2023-07-29T07:05:38;100144.41;;;15.75;100.00
43436;BME280;36399;51.444;-2.018;2023-07-29T07:08:04;100115.06;;;15.91;100.00
43436;BME280;36399;51.444;-2.018;2023-07-29T07:10:30;100089.53;;;15.88;100.00
43436;BME280;36399;51.444;-2.018;2023-07-29T07:12:56;100087.59;;;15.98;100.00
43436;BME280;36399;51.444;-2.018;2023-07-29T07:15:22;100069.78;;;16.09;100.00
43436;BME280;36399;51.444;-2.018;2023-07-29T07:17:48;100061.75;;;16.15;100.00
43436;BME280;36399;51.444;-2.018;2023-07-29T07:20:14;100033.41;;;16.22;100.00
43436;BME280;36399;51.444;-2.018;2023-07-29T07:22:39;100024.31;;;16.36;100.00
43436;BME280;36399;51.444;-2.018;2023-07-29T07:25:06;99993.94;;;16.54;100.00
43436;BME280;36399;51.444;-2.018;2023-07-29T07:27:32;99988.06;;;16.86;100.00
43436;BME280;36399;51.444;-2.018;2023-07-29T07:29:58;99960.78;;;17.23;100.00
43436;BME280;36399;51.444;-2.018;2023-07-29T07:32:24;99946.75;;;17.55;100.00
43436;BME280;36399;51.444;-2.018;2023-07-29T07:34:49;99919.22;;;17.59;100.00
43436;BME280;36399;51.444;-2.018;2023-07-29T07:37:15;99893.19;;;17.39;100.00
43436;BME280;36399;51.444;-2.018;2023-07-29T07:39:41;99889.41;;;17.11;100.00
43436;BME280;36399;51.444;-2.018;2023-07-29T07:42:07;99892.13;;;17.08;100.00
43436;BME280;36399;51.444;-2.018;2023-07-29T07:44:33;99900.41;;;16.94;100.00
43436;BME280;36399;51.444;-2.018;2023-07-29T07:46:59;99883.91;;;16.81;100.00
43436;BME280;36399;51.444;-2.018;2023-07-29T07:49:25;99900.78;;;16.77;100.00
43436;BME280;36399;51.444;-2.018;2023-07-29T07:51:51;99910.41;;;16.81;100.00
43436;BME280;36399;51.444;-2.018;2023-07-29T07:54:17;99908.53;;;16.86;100.00
43436;BME280;36399;51.444;-2.018;2023-07-29T07:56:43;99919.28;;;16.80;100.00
43436;BME280;36399;51.444;-2.018;2023-07-29T07:59:09;99926.63;;;16.66;100.00
43436;BME280;36399;51.444;-2.018;2023-07-29T08:01:36;99919.56;;;16.65;100.00
43436;BME280;36399;51.444;-2.018;2023-07-29T08:04:02;99935.63;;;16.56;100.00
43436;BME280;36399;51.444;-2.018;2023-07-29T08:06:29;99936.00;;;16.37;100.00
43436;BME280;36399;51.444;-2.018;2023-07-29T08:08:56;99933.22;;;16.44;100.00
43436;BME280;36399;51.444;-2.018;2023-07-29T08:11:22;99923.78;;;16.75;100.00
43436;BME280;36399;51.444;-2.018;2023-07-29T08:13:48;99905.97;;;17.22;100.00
43436;BME280;36399;51.444;-2.018;2023-07-29T08:16:14;99889.03;;;17.27;100.00
43436;BME280;36399;51.444;-2.018;2023-07-29T08:18:40;99859.53;;;17.41;100.00
43436;BME280;36399;51.444;-2.018;2023-07-29T08:21:06;99844.94;;;17.57;100.00
43436;BME280;36399;51.444;-2.018;2023-07-29T08:23:34;99855.13;;;17.77;100.00
43436;BME280;36399;51.444;-2.018;2023-07-29T08:26:02;99854.66;;;17.94;100.00
43436;BME280;36399;51.444;-2.018;2023-07-29T08:28:37;99826.19;;;17.99;100.00
43436;BME280;36399;51.444;-2.018;2023-07-29T08:31:04;99812.41;;;17.85;100.00
43436;BME280;36399;51.444;-2.018;2023-07-29T08:33:30;99820.84;;;17.65;100.00
43436;BME280;36399;51.444;-2.018;2023-07-29T08:35:57;99825.59;;;17.54;100.00
43436;BME280;36399;51.444;-2.018;2023-07-29T08:38:24;99831.00;;;17.49;100.00
43436;BME280;36399;51.444;-2.018;2023-07-29T08:40:56;99830.25;;;17.80;100.00
43436;BME280;36399;51.444;-2.018;2023-07-29T08:43:28;99810.13;;;18.35;100.00
43436;BME280;36399;51.444;-2.018;2023-07-29T08:45:58;99799.97;;;18.49;100.00
43436;BME280;36399;51.444;-2.018;2023-07-29T08:48:34;99798.34;;;18.43;100.00
43436;BME280;36399;51.444;-2.018;2023-07-29T08:51:03;99790.75;;;18.00;100.00
43436;BME280;36399;51.444;-2.018;2023-07-29T08:53:31;99804.25;;;18.23;100.00
43436;BME280;36399;51.444;-2.018;2023-07-29T08:55:57;99803.03;;;18.04;100.00
43436;BME280;36399;51.444;-2.018;2023-07-29T08:58:24;99790.56;;;18.06;100.00
43436;BME280;36399;51.444;-2.018;2023-07-29T09:00:50;99789.78;;;18.34;100.00
43436;BME280;36399;51.444;-2.018;2023-07-29T09:03:16;99768.13;;;18.47;100.00
43436;BME280;36399;51.444;-2.018;2023-07-29T09:05:42;99775.34;;;18.73;100.00
43436;BME280;36399;51.444;-2.018;2023-07-29T09:08:09;99754.28;;;19.20;100.00
43436;BME280;36399;51.444;-2.018;2023-07-29T09:10:36;99751.78;;;19.42;100.00
43436;BME280;36399;51.444;-2.018;2023-07-29T09:13:04;99741.94;;;19.44;100.00
43436;BME280;36399;51.444;-2.018;2023-07-29T09:15:31;99743.34;;;19.56;100.00
43436;BME280;36399;51.444;-2.018;2023-07-29T09:17:58;99725.28;;;19.64;100.00
43436;BME280;36399;51.444;-2.018;2023-07-29T09:20:26;99731.56;;;19.10;100.00
43436;BME280;36399;51.444;-2.018;2023-07-29T09:22:58;99741.47;;;19.33;100.00
43436;BME280;36399;51.444;-2.018;2023-07-29T09:25:26;99744.34;;;19.27;100.00
43436;BME280;36399;51.444;-2.018;2023-07-29T09:27:58;99737.38;;;19.21;100.00
43436;BME280;36399;51.444;-2.018;2023-07-29T09:30:24;99734.22;;;19.36;100.00
43436;BME280;36399;51.444;-2.018;2023-07-29T09:32:58;99734.31;;;19.60;100.00
43436;BME280;36399;51.444;-2.018;2023-07-29T09:35:27;99731.53;;;19.63;100.00
43436;BME280;36399;51.444;-2.018;2023-07-29T09:37:54;99729.84;;;19.60;100.00
43436;BME280;36399;51.444;-2.018;2023-07-29T09:40:19;99741.47;;;19.33;100.00
43436;BME280;36399;51.444;-2.018;2023-07-29T09:42:53;99745.91;;;19.32;100.00
43436;BME280;36399;51.444;-2.018;2023-07-29T09:45:23;99722.88;;;19.31;100.00
43436;BME280;36399;51.444;-2.018;2023-07-29T09:47:51;99733.81;;;19.48;100.00
43436;BME280;36399;51.444;-2.018;2023-07-29T09:50:17;99742.69;;;19.74;100.00
43436;BME280;36399;51.444;-2.018;2023-07-29T09:52:43;99737.47;;;19.71;100.00
43436;BME280;36399;51.444;-2.018;2023-07-29T09:55:12;99732.50;;;19.09;100.00
43436;BME280;36399;51.444;-2.018;2023-07-29T09:57:39;99728.19;;;19.05;100.00
43436;BME280;36399;51.444;-2.018;2023-07-29T10:00:05;99716.25;;;19.43;100.00
43436;BME280;36399;51.444;-2.018;2023-07-29T10:02:41;99703.44;;;20.26;100.00
43436;BME280;36399;51.444;-2.018;2023-07-29T10:05:08;99695.78;;;21.27;100.00
43436;BME280;36399;51.444;-2.018;2023-07-29T10:07:39;99697.88;;;21.19;100.00
43436;BME280;36399;51.444;-2.018;2023-07-29T10:10:07;99695.84;;;20.84;100.00
43436;BME280;36399;51.444;-2.018;2023-07-29T10:12:34;99667.97;;;20.91;100.00
43436;BME280;36399;51.444;-2.018;2023-07-29T10:15:05;99686.47;;;21.37;100.00
43436;BME280;36399;51.444;-2.018;2023-07-29T10:17:36;99677.91;;;21.50;100.00
43436;BME280;36399;51.444;-2.018;2023-07-29T10:20:07;99672.19;;;21.38;100.00
43436;BME280;36399;51.444;-2.018;2023-07-29T10:22:38;99673.91;;;21.18;100.00
43436;BME280;36399;51.444;-2.018;2023-07-29T10:30:11;99674.28;;;22.29;100.00
43436;BME280;36399;51.444;-2.018;2023-07-29T10:32:38;99661.41;;;23.26;100.00
43436;BME280;36399;51.444;-2.018;2023-07-29T10:35:07;99672.75;;;23.66;100.00
43436;BME280;36399;51.444;-2.018;2023-07-29T10:37:33;99666.69;;;23.63;100.00
43436;BME280;36399;51.444;-2.018;2023-07-29T10:39:59;99664.50;;;23.86;100.00
43436;BME280;36399;51.444;-2.018;2023-07-29T10:42:25;99666.84;;;23.42;100.00
43436;BME280;36399;51.444;-2.018;2023-07-29T10:44:52;99669.56;;;23.75;100.00
43436;BME280;36399;51.444;-2.018;2023-07-29T10:49:54;99666.63;;;24.13;100.00
43436;BME280;36399;51.444;-2.018;2023-07-29T10:55:02;99679.38;;;23.59;100.00
43436;BME280;36399;51.444;-2.018;2023-07-29T10:57:37;99684.31;;;22.05;100.00
43436;BME280;36399;51.444;-2.018;2023-07-29T11:00:04;99687.91;;;22.60;100.00
43436;BME280;36399;51.444;-2.018;2023-07-29T11:02:32;99692.34;;;22.79;100.00
43436;BME280;36399;51.444;-2.018;2023-07-29T11:04:59;99686.78;;;23.19;100.00
43436;BME280;36399;51.444;-2.018;2023-07-29T11:07:30;99675.69;;;23.95;100.00
43436;BME280;36399;51.444;-2.018;2023-07-29T11:10:00;99685.34;;;22.95;100.00
43436;BME280;36399;51.444;-2.018;2023-07-29T11:12:43;99686.56;;;22.14;100.00
43436;BME280;36399;51.444;-2.018;2023-07-29T11:17:42;99696.59;;;21.29;100.00
43436;BME280;36399;51.444;-2.018;2023-07-29T11:20:08;99693.06;;;22.09;100.00
43436;BME280;36399;51.444;-2.018;2023-07-29T11:22:35;99704.88;;;22.97;100.00
43436;BME280;36399;51.444;-2.018;2023-07-29T11:25:02;99699.09;;;23.58;100.00
43436;BME280;36399;51.444;-2.018;2023-07-29T11:27:28;99687.59;;;23.89;100.00
43436;BME280;36399;51.444;-2.018;2023-07-29T11:30:02;99698.22;;;23.90;100.00
43436;BME280;36399;51.444;-2.018;2023-07-29T11:32:28;99710.41;;;23.11;100.00
43436;BME280;36399;51.444;-2.018;2023-07-29T11:34:54;99710.03;;;22.64;100.00
43436;BME280;36399;51.444;-2.018;2023-07-29T11:37:20;99700.88;;;21.54;100.00
43436;BME280;36399;51.444;-2.018;2023-07-29T11:39:47;99718.41;;;20.53;100.00
43436;BME280;36399;51.444;-2.018;2023-07-29T11:42:16;99715.97;;;21.34;100.00
43436;BME280;36399;51.444;-2.018;2023-07-29T11:44:42;99714.69;;;22.02;100.00
43436;BME280;36399;51.444;-2.018;2023-07-29T11:47:12;99713.09;;;21.98;100.00
43436;BME280;36399;51.444;-2.018;2023-07-29T11:49:39;99725.59;;;21.98;100.00
43436;BME280;36399;51.444;-2.018;2023-07-29T11:52:07;99725.34;;;22.79;100.00
43436;BME280;36399;51.444;-2.018;2023-07-29T11:54:35;99716.56;;;23.65;100.00
43436;BME280;36399;51.444;-2.018;2023-07-29T11:57:01;99711.34;;;24.45;100.00
43436;BME280;36399;51.444;-2.018;2023-07-29T11:59:27;99720.78;;;25.00;100.00
43436;BME280;36399;51.444;-2.018;2023-07-29T12:01:54;99730.50;;;23.54;100.00
43436;BME280;36399;51.444;-2.018;2023-07-29T12:04:20;99725.88;;;23.58;100.00
43436;BME280;36399;51.444;-2.018;2023-07-29T12:06:46;99733.84;;;23.92;100.00
43436;BME280;36399;51.444;-2.018;2023-07-29T12:09:12;99737.03;;;23.14;100.00
43436;BME280;36399;51.444;-2.018;2023-07-29T12:11:39;99740.84;;;22.35;100.00
43436;BME280;36399;51.444;-2.018;2023-07-29T12:14:07;99735.34;;;22.94;100.00
43436;BME280;36399;51.444;-2.018;2023-07-29T12:16:43;99728.84;;;22.81;100.00
43436;BME280;36399;51.444;-2.018;2023-07-29T12:19:13;99745.28;;;23.10;100.00
43436;BME280;36399;51.444;-2.018;2023-07-29T12:21:41;99764.97;;;22.15;100.00
43436;BME280;36399;51.444;-2.018;2023-07-29T12:24:07;99753.47;;;21.92;100.00
43436;BME280;36399;51.444;-2.018;2023-07-29T12:26:35;99742.25;;;22.04;100.00
43436;BME280;36399;51.444;-2.018;2023-07-29T12:29:18;99745.22;;;22.17;100.00
43436;BME280;36399;51.444;-2.018;2023-07-29T12:31:47;99741.44;;;22.42;100.00
43436;BME280;36399;51.444;-2.018;2023-07-29T12:34:20;99736.63;;;22.86;100.00
43436;BME280;36399;51.444;-2.018;2023-07-29T12:36:49;99733.94;;;23.22;100.00
43436;BME280;36399;51.444;-2.018;2023-07-29T12:39:22;99744.38;;;22.73;100.00
43436;BME280;36399;51.444;-2.018;2023-07-29T12:41:49;99750.59;;;21.97;100.00
43436;BME280;36399;51.444;-2.018;2023-07-29T12:44:15;99739.09;;;21.95;100.00
43436;BME280;36399;51.444;-2.018;2023-07-29T12:46:41;99743.06;;;21.86;100.00
43436;BME280;36399;51.444;-2.018;2023-07-29T12:49:07;99741.91;;;22.87;100.00
43436;BME280;36399;51.444;-2.018;2023-07-29T12:51:33;99749.78;;;23.09;100.00
43436;BME280;36399;51.444;-2.018;2023-07-29T12:54:00;99745.09;;;22.77;100.00
43436;BME280;36399;51.444;-2.018;2023-07-29T12:56:26;99755.44;;;23.03;100.00